sensor_id;sensor_type;location;lat;lon;timestamp;temperature;humidity
12870;DHT22;6503;48.572;13.460;2022-11-03T00:05:47;7.70;99.90
12870;DHT22;6503;48.572;13.460;2022-11-03T00:08:39;7.70;99.90
12870;DHT22;6503;48.572;13.460;2022-11-03T00:11:40;7.70;99.90
12870;DHT22;6503;48.572;13.460;2022-11-03T00:14:10;7.60;99.90
12870;DHT22;6503;48.572;13.460;2022-11-03T00:16:49;7.60;99.90
12870;DHT22;6503;48.572;13.460;2022-11-03T00:19:35;7.40;99.90
12870;DHT22;6503;48.572;13.460;2022-11-03T00:22:41;7.40;99.90
12870;DHT22;6503;48.572;13.460;2022-11-03T00:25:15;7.30;99.90
12870;DHT22;6503;48.572;13.460;2022-11-03T00:30:55;7.30;99.90
12870;DHT22;6503;48.572;13.460;2022-11-03T00:33:30;7.40;99.90
12870;DHT22;6503;48.572;13.460;2022-11-03T00:36:03;7.40;99.90
12870;DHT22;6503;48.572;13.460;2022-11-03T00:38:51;7.40;99.90
12870;DHT22;6503;48.572;13.460;2022-11-03T00:41:24;7.40;99.90
12870;DHT22;6503;48.572;13.460;2022-11-03T00:43:55;7.50;99.90
12870;DHT22;6503;48.572;13.460;2022-11-03T00:46:46;7.60;99.90
12870;DHT22;6503;48.572;13.460;2022-11-03T00:49:32;7.70;99.90
12870;DHT22;6503;48.572;13.460;2022-11-03T00:52:14;7.60;99.90
12870;DHT22;6503;48.572;13.460;2022-11-03T00:58:17;7.50;99.90
12870;DHT22;6503;48.572;13.460;2022-11-03T01:00:59;7.60;99.90
12870;DHT22;6503;48.572;13.460;2022-11-03T01:03:46;7.60;99.90
12870;DHT22;6503;48.572;13.460;2022-11-03T01:06:33;7.70;99.90
12870;DHT22;6503;48.572;13.460;2022-11-03T01:09:19;7.70;99.90
12870;DHT22;6503;48.572;13.460;2022-11-03T01:12:12;7.70;99.90
12870;DHT22;6503;48.572;13.460;2022-11-03T01:17:59;7.60;99.90
12870;DHT22;6503;48.572;13.460;2022-11-03T01:21:00;7.70;99.90
12870;DHT22;6503;48.572;13.460;2022-11-03T01:23:49;7.50;99.90
12870;DHT22;6503;48.572;13.460;2022-11-03T01:26:33;7.50;99.90
12870;DHT22;6503;48.572;13.460;2022-11-03T01:29:07;7.60;99.90
12870;DHT22;6503;48.572;13.460;2022-11-03T01:35:21;7.60;99.90
12870;DHT22;6503;48.572;13.460;2022-11-03T01:38:23;7.70;99.90
12870;DHT22;6503;48.572;13.460;2022-11-03T01:40:57;7.70;99.90
12870;DHT22;6503;48.572;13.460;2022-11-03T01:43:31;7.70;99.90
12870;DHT22;6503;48.572;13.460;2022-11-03T01:46:19;7.70;99.90
12870;DHT22;6503;48.572;13.460;2022-11-03T01:49:21;7.70;99.90
12870;DHT22;6503;48.572;13.460;2022-11-03T01:52:19;7.70;99.90
12870;DHT22;6503;48.572;13.460;2022-11-03T01:55:10;7.60;99.90
12870;DHT22;6503;48.572;13.460;2022-11-03T01:57:49;7.40;99.90
12870;DHT22;6503;48.572;13.460;2022-11-03T02:00:35;7.40;99.90
12870;DHT22;6503;48.572;13.460;2022-11-03T02:03:27;7.40;99.90
12870;DHT22;6503;48.572;13.460;2022-11-03T02:06:12;7.40;99.90
12870;DHT22;6503;48.572;13.460;2022-11-03T02:09:03;7.40;99.90
12870;DHT22;6503;48.572;13.460;2022-11-03T02:11:56;7.50;99.90
12870;DHT22;6503;48.572;13.460;2022-11-03T02:14:40;7.50;99.90
12870;DHT22;6503;48.572;13.460;2022-11-03T02:17:14;7.60;99.90
12870;DHT22;6503;48.572;13.460;2022-11-03T02:19:52;7.60;99.90
12870;DHT22;6503;48.572;13.460;2022-11-03T02:25:39;7.50;99.90
12870;DHT22;6503;48.572;13.460;2022-11-03T02:28:15;7.40;99.90
12870;DHT22;6503;48.572;13.460;2022-11-03T02:30:56;7.50;99.90
12870;DHT22;6503;48.572;13.460;2022-11-03T02:33:50;7.50;99.90
12870;DHT22;6503;48.572;13.460;2022-11-03T02:36:39;7.50;99.90
12870;DHT22;6503;48.572;13.460;2022-11-03T02:39:40;7.50;99.90
12870;DHT22;6503;48.572;13.460;2022-11-03T02:42:30;7.40;99.90
12870;DHT22;6503;48.572;13.460;2022-11-03T02:45:10;7.20;99.90
12870;DHT22;6503;48.572;13.460;2022-11-03T02:47:52;7.10;99.90
12870;DHT22;6503;48.572;13.460;2022-11-03T02:50:28;7.10;99.90
12870;DHT22;6503;48.572;13.460;2022-11-03T02:53:14;7.20;99.90
12870;DHT22;6503;48.572;13.460;2022-11-03T02:58:47;7.30;99.90
12870;DHT22;6503;48.572;13.460;2022-11-03T03:01:31;7.20;99.90
12870;DHT22;6503;48.572;13.460;2022-11-03T03:06:56;7.20;99.90
12870;DHT22;6503;48.572;13.460;2022-11-03T03:09:45;7.20;99.90
12870;DHT22;6503;48.572;13.460;2022-11-03T03:12:30;7.30;99.90
12870;DHT22;6503;48.572;13.460;2022-11-03T03:15:30;7.20;99.90
12870;DHT22;6503;48.572;13.460;2022-11-03T03:18:09;7.20;99.90
12870;DHT22;6503;48.572;13.460;2022-11-03T03:20:56;7.10;99.90
12870;DHT22;6503;48.572;13.460;2022-11-03T03:23:44;7.10;99.90
12870;DHT22;6503;48.572;13.460;2022-11-03T03:26:19;7.10;99.90
12870;DHT22;6503;48.572;13.460;2022-11-03T03:28:57;7.10;99.90
12870;DHT22;6503;48.572;13.460;2022-11-03T03:31:35;7.00;99.90
12870;DHT22;6503;48.572;13.460;2022-11-03T03:34:10;6.90;99.90
12870;DHT22;6503;48.572;13.460;2022-11-03T03:37:14;6.70;99.90
12870;DHT22;6503;48.572;13.460;2022-11-03T03:40:11;6.50;99.90
12870;DHT22;6503;48.572;13.460;2022-11-03T03:43:01;6.40;99.90
12870;DHT22;6503;48.572;13.460;2022-11-03T03:45:53;6.30;99.90
12870;DHT22;6503;48.572;13.460;2022-11-03T03:48:42;6.40;99.90
12870;DHT22;6503;48.572;13.460;2022-11-03T03:51:26;6.50;99.90
12870;DHT22;6503;48.572;13.460;2022-11-03T03:54:06;6.60;99.90
12870;DHT22;6503;48.572;13.460;2022-11-03T03:56:57;6.60;99.90
12870;DHT22;6503;48.572;13.460;2022-11-03T03:59:46;6.50;99.90
12870;DHT22;6503;48.572;13.460;2022-11-03T04:02:40;6.50;99.90
12870;DHT22;6503;48.572;13.460;2022-11-03T04:05:46;6.50;99.90
12870;DHT22;6503;48.572;13.460;2022-11-03T04:08:42;6.50;99.90
12870;DHT22;6503;48.572;13.460;2022-11-03T04:14:50;6.50;99.90
12870;DHT22;6503;48.572;13.460;2022-11-03T04:17:51;6.50;99.90
12870;DHT22;6503;48.572;13.460;2022-11-03T04:27:40;6.20;99.90
12870;DHT22;6503;48.572;13.460;2022-11-03T04:30:47;6.20;99.90
12870;DHT22;6503;48.572;13.460;2022-11-03T04:36:40;6.20;99.90
12870;DHT22;6503;48.572;13.460;2022-11-03T04:39:17;6.10;99.90
12870;DHT22;6503;48.572;13.460;2022-11-03T04:58:21;6.10;99.90
12870;DHT22;6503;48.572;13.460;2022-11-03T05:01:28;6.00;99.90
12870;DHT22;6503;48.572;13.460;2022-11-03T05:04:18;5.80;99.90
12870;DHT22;6503;48.572;13.460;2022-11-03T05:06:57;5.80;99.90
12870;DHT22;6503;48.572;13.460;2022-11-03T05:10:12;5.80;99.90
12870;DHT22;6503;48.572;13.460;2022-11-03T05:12:53;5.80;99.90
12870;DHT22;6503;48.572;13.460;2022-11-03T05:15:28;5.80;99.90
12870;DHT22;6503;48.572;13.460;2022-11-03T05:18:20;5.80;99.90
12870;DHT22;6503;48.572;13.460;2022-11-03T05:21:16;5.80;99.90
12870;DHT22;6503;48.572;13.460;2022-11-03T05:24:04;5.80;99.90
12870;DHT22;6503;48.572;13.460;2022-11-03T05:29:42;5.90;99.90
12870;DHT22;6503;48.572;13.460;2022-11-03T05:32:55;6.00;99.90
12870;DHT22;6503;48.572;13.460;2022-11-03T05:35:44;6.00;99.90
12870;DHT22;6503;48.572;13.460;2022-11-03T05:38:26;5.90;99.90
12870;DHT22;6503;48.572;13.460;2022-11-03T05:40:54;5.90;99.90
12870;DHT22;6503;48.572;13.460;2022-11-03T05:43:22;5.80;99.90
12870;DHT22;6503;48.572;13.460;2022-11-03T05:45:51;5.80;99.90
12870;DHT22;6503;48.572;13.460;2022-11-03T05:48:31;5.80;99.90
12870;DHT22;6503;48.572;13.460;2022-11-03T05:51:00;5.80;99.90
12870;DHT22;6503;48.572;13.460;2022-11-03T05:53:30;5.90;99.90
12870;DHT22;6503;48.572;13.460;2022-11-03T05:56:00;5.90;99.90
12870;DHT22;6503;48.572;13.460;2022-11-03T05:58:30;6.00;99.90
12870;DHT22;6503;48.572;13.460;2022-11-03T06:00:59;6.00;99.90
12870;DHT22;6503;48.572;13.460;2022-11-03T06:03:35;5.90;99.90
12870;DHT22;6503;48.572;13.460;2022-11-03T06:06:12;5.90;99.90
12870;DHT22;6503;48.572;13.460;2022-11-03T06:08:45;6.00;99.90
12870;DHT22;6503;48.572;13.460;2022-11-03T06:11:19;6.00;99.90
12870;DHT22;6503;48.572;13.460;2022-11-03T06:13:48;6.00;99.90
12870;DHT22;6503;48.572;13.460;2022-11-03T06:16:35;6.00;99.90
12870;DHT22;6503;48.572;13.460;2022-11-03T06:19:19;6.00;99.90
12870;DHT22;6503;48.572;13.460;2022-11-03T06:21:47;6.00;99.90
12870;DHT22;6503;48.572;13.460;2022-11-03T06:24:14;6.00;99.90
12870;DHT22;6503;48.572;13.460;2022-11-03T06:26:43;6.00;99.90
12870;DHT22;6503;48.572;13.460;2022-11-03T06:29:13;6.00;99.90
12870;DHT22;6503;48.572;13.460;2022-11-03T06:31:42;6.00;99.90
12870;DHT22;6503;48.572;13.460;2022-11-03T06:34:21;6.00;99.90
12870;DHT22;6503;48.572;13.460;2022-11-03T06:36:51;6.00;99.90
12870;DHT22;6503;48.572;13.460;2022-11-03T06:39:21;6.00;99.90
12870;DHT22;6503;48.572;13.460;2022-11-03T06:41:49;6.00;99.90
12870;DHT22;6503;48.572;13.460;2022-11-03T06:44:22;6.00;99.90
12870;DHT22;6503;48.572;13.460;2022-11-03T06:46:53;6.10;99.90
12870;DHT22;6503;48.572;13.460;2022-11-03T06:49:27;6.10;99.90
12870;DHT22;6503;48.572;13.460;2022-11-03T06:52:01;6.20;99.90
12870;DHT22;6503;48.572;13.460;2022-11-03T06:54:28;6.20;99.90
12870;DHT22;6503;48.572;13.460;2022-11-03T06:56:55;6.30;99.90
12870;DHT22;6503;48.572;13.460;2022-11-03T06:59:23;6.30;99.90
12870;DHT22;6503;48.572;13.460;2022-11-03T07:01:54;6.30;99.90
12870;DHT22;6503;48.572;13.460;2022-11-03T07:04:22;6.30;99.90
12870;DHT22;6503;48.572;13.460;2022-11-03T07:06:55;6.30;99.90
12870;DHT22;6503;48.572;13.460;2022-11-03T07:09:26;6.40;99.90
12870;DHT22;6503;48.572;13.460;2022-11-03T07:11:54;6.40;99.90
12870;DHT22;6503;48.572;13.460;2022-11-03T07:14:33;6.40;99.90
12870;DHT22;6503;48.572;13.460;2022-11-03T07:17:04;6.40;99.90
12870;DHT22;6503;48.572;13.460;2022-11-03T07:19:35;6.40;99.90
12870;DHT22;6503;48.572;13.460;2022-11-03T07:22:10;6.40;99.90
12870;DHT22;6503;48.572;13.460;2022-11-03T07:24:44;6.40;99.90
12870;DHT22;6503;48.572;13.460;2022-11-03T07:27:15;6.30;99.90
12870;DHT22;6503;48.572;13.460;2022-11-03T07:29:48;6.50;99.90
12870;DHT22;6503;48.572;13.460;2022-11-03T07:32:19;6.50;99.90
12870;DHT22;6503;48.572;13.460;2022-11-03T07:34:50;6.50;99.90
12870;DHT22;6503;48.572;13.460;2022-11-03T07:37:23;6.40;99.90
12870;DHT22;6503;48.572;13.460;2022-11-03T07:39:51;6.40;99.90
12870;DHT22;6503;48.572;13.460;2022-11-03T07:42:21;6.40;99.90
12870;DHT22;6503;48.572;13.460;2022-11-03T07:44:49;6.40;99.90
12870;DHT22;6503;48.572;13.460;2022-11-03T07:47:19;6.50;99.90
12870;DHT22;6503;48.572;13.460;2022-11-03T07:49:47;6.40;99.90
12870;DHT22;6503;48.572;13.460;2022-11-03T07:52:17;6.40;99.90
12870;DHT22;6503;48.572;13.460;2022-11-03T07:54:49;6.60;99.90
12870;DHT22;6503;48.572;13.460;2022-11-03T07:57:17;6.80;99.90
12870;DHT22;6503;48.572;13.460;2022-11-03T07:59:50;6.90;99.90
12870;DHT22;6503;48.572;13.460;2022-11-03T08:02:24;7.00;99.90
12870;DHT22;6503;48.572;13.460;2022-11-03T08:04:55;7.10;99.90
12870;DHT22;6503;48.572;13.460;2022-11-03T08:07:23;7.10;99.90
12870;DHT22;6503;48.572;13.460;2022-11-03T08:09:53;7.30;99.90
12870;DHT22;6503;48.572;13.460;2022-11-03T08:12:20;7.40;99.90
12870;DHT22;6503;48.572;13.460;2022-11-03T08:14:47;7.50;99.90
12870;DHT22;6503;48.572;13.460;2022-11-03T08:17:14;7.60;99.90
12870;DHT22;6503;48.572;13.460;2022-11-03T08:19:42;7.70;99.90
12870;DHT22;6503;48.572;13.460;2022-11-03T08:22:09;7.60;99.90
12870;DHT22;6503;48.572;13.460;2022-11-03T08:24:36;7.60;99.90
12870;DHT22;6503;48.572;13.460;2022-11-03T08:27:07;7.70;99.90
12870;DHT22;6503;48.572;13.460;2022-11-03T08:29:35;7.70;99.90
12870;DHT22;6503;48.572;13.460;2022-11-03T08:32:03;7.80;99.90
12870;DHT22;6503;48.572;13.460;2022-11-03T08:34:30;7.80;99.90
12870;DHT22;6503;48.572;13.460;2022-11-03T08:36:58;7.80;99.90
12870;DHT22;6503;48.572;13.460;2022-11-03T08:39:27;7.90;99.90
12870;DHT22;6503;48.572;13.460;2022-11-03T08:41:56;7.90;99.90
12870;DHT22;6503;48.572;13.460;2022-11-03T08:44:27;8.00;99.90
12870;DHT22;6503;48.572;13.460;2022-11-03T08:46:55;8.00;99.90
12870;DHT22;6503;48.572;13.460;2022-11-03T08:49:24;8.10;99.90
12870;DHT22;6503;48.572;13.460;2022-11-03T08:51:51;8.20;99.90
12870;DHT22;6503;48.572;13.460;2022-11-03T08:54:20;8.30;99.90
12870;DHT22;6503;48.572;13.460;2022-11-03T08:56:48;8.30;99.90
12870;DHT22;6503;48.572;13.460;2022-11-03T08:59:15;8.50;99.90
12870;DHT22;6503;48.572;13.460;2022-11-03T09:01:43;8.60;99.90
12870;DHT22;6503;48.572;13.460;2022-11-03T09:04:11;8.80;99.90
12870;DHT22;6503;48.572;13.460;2022-11-03T09:06:38;9.00;99.90
12870;DHT22;6503;48.572;13.460;2022-11-03T09:09:05;9.10;99.90
12870;DHT22;6503;48.572;13.460;2022-11-03T09:11:35;9.30;99.90
12870;DHT22;6503;48.572;13.460;2022-11-03T09:14:05;9.50;99.90
12870;DHT22;6503;48.572;13.460;2022-11-03T09:16:34;9.60;99.90
12870;DHT22;6503;48.572;13.460;2022-11-03T09:19:04;9.70;99.90
12870;DHT22;6503;48.572;13.460;2022-11-03T09:21:32;9.80;99.90
12870;DHT22;6503;48.572;13.460;2022-11-03T09:23:58;9.90;99.90
12870;DHT22;6503;48.572;13.460;2022-11-03T09:26:25;10.10;99.90
12870;DHT22;6503;48.572;13.460;2022-11-03T09:28:56;10.30;99.90
12870;DHT22;6503;48.572;13.460;2022-11-03T09:31:23;10.50;99.90
12870;DHT22;6503;48.572;13.460;2022-11-03T09:34:02;10.50;99.90
12870;DHT22;6503;48.572;13.460;2022-11-03T09:36:29;10.60;99.90
12870;DHT22;6503;48.572;13.460;2022-11-03T09:38:56;10.60;99.90
12870;DHT22;6503;48.572;13.460;2022-11-03T09:41:25;10.70;99.90
12870;DHT22;6503;48.572;13.460;2022-11-03T09:43:55;10.80;99.90
12870;DHT22;6503;48.572;13.460;2022-11-03T09:46:23;10.90;99.90
12870;DHT22;6503;48.572;13.460;2022-11-03T09:48:50;11.00;99.90
12870;DHT22;6503;48.572;13.460;2022-11-03T09:51:20;11.20;99.90
12870;DHT22;6503;48.572;13.460;2022-11-03T09:53:48;11.30;99.90
12870;DHT22;6503;48.572;13.460;2022-11-03T09:56:16;11.40;99.90
12870;DHT22;6503;48.572;13.460;2022-11-03T09:58:44;11.40;99.90
12870;DHT22;6503;48.572;13.460;2022-11-03T10:01:12;11.60;99.90
12870;DHT22;6503;48.572;13.460;2022-11-03T10:03:39;11.70;99.90
12870;DHT22;6503;48.572;13.460;2022-11-03T10:06:09;11.80;99.90
12870;DHT22;6503;48.572;13.460;2022-11-03T10:08:38;11.80;99.90
12870;DHT22;6503;48.572;13.460;2022-11-03T10:11:06;12.00;99.90
12870;DHT22;6503;48.572;13.460;2022-11-03T10:13:37;12.20;99.90
12870;DHT22;6503;48.572;13.460;2022-11-03T10:16:06;12.40;99.90
12870;DHT22;6503;48.572;13.460;2022-11-03T10:18:36;12.50;99.90
12870;DHT22;6503;48.572;13.460;2022-11-03T10:21:04;12.60;99.90
12870;DHT22;6503;48.572;13.460;2022-11-03T10:23:32;12.60;99.90
12870;DHT22;6503;48.572;13.460;2022-11-03T10:26:07;12.70;99.90
12870;DHT22;6503;48.572;13.460;2022-11-03T10:28:35;12.80;99.90
12870;DHT22;6503;48.572;13.460;2022-11-03T10:31:05;12.80;99.90
12870;DHT22;6503;48.572;13.460;2022-11-03T10:33:34;12.90;99.90
12870;DHT22;6503;48.572;13.460;2022-11-03T10:36:03;13.10;99.90
12870;DHT22;6503;48.572;13.460;2022-11-03T10:38:31;13.30;99.90
12870;DHT22;6503;48.572;13.460;2022-11-03T10:41:13;13.40;99.90
12870;DHT22;6503;48.572;13.460;2022-11-03T10:43:41;13.60;99.90
12870;DHT22;6503;48.572;13.460;2022-11-03T10:46:12;13.80;99.90
12870;DHT22;6503;48.572;13.460;2022-11-03T10:48:45;13.90;99.90
12870;DHT22;6503;48.572;13.460;2022-11-03T10:51:26;14.00;99.90
12870;DHT22;6503;48.572;13.460;2022-11-03T10:53:53;13.90;99.90
12870;DHT22;6503;48.572;13.460;2022-11-03T10:56:23;13.90;99.90
12870;DHT22;6503;48.572;13.460;2022-11-03T10:58:51;14.00;99.90
12870;DHT22;6503;48.572;13.460;2022-11-03T11:01:18;14.10;99.90
12870;DHT22;6503;48.572;13.460;2022-11-03T11:03:45;14.20;99.90
12870;DHT22;6503;48.572;13.460;2022-11-03T11:06:19;14.40;99.90
12870;DHT22;6503;48.572;13.460;2022-11-03T11:08:48;14.50;99.90
12870;DHT22;6503;48.572;13.460;2022-11-03T11:11:16;14.70;99.90
12870;DHT22;6503;48.572;13.460;2022-11-03T11:13:44;14.70;99.90
12870;DHT22;6503;48.572;13.460;2022-11-03T11:16:46;14.90;99.90
12870;DHT22;6503;48.572;13.460;2022-11-03T11:19:15;14.80;99.90
12870;DHT22;6503;48.572;13.460;2022-11-03T11:22:12;15.00;99.90
12870;DHT22;6503;48.572;13.460;2022-11-03T11:25:04;15.20;99.90
12870;DHT22;6503;48.572;13.460;2022-11-03T11:28:15;15.30;99.90
12870;DHT22;6503;48.572;13.460;2022-11-03T11:39:56;15.50;99.90
12870;DHT22;6503;48.572;13.460;2022-11-03T11:42:23;15.50;99.90
12870;DHT22;6503;48.572;13.460;2022-11-03T11:44:59;15.70;99.90
12870;DHT22;6503;48.572;13.460;2022-11-03T11:47:49;15.80;99.90
12870;DHT22;6503;48.572;13.460;2022-11-03T11:50:23;16.00;99.90
12870;DHT22;6503;48.572;13.460;2022-11-03T11:53:00;16.10;99.90
12870;DHT22;6503;48.572;13.460;2022-11-03T11:55:44;16.30;99.90
12870;DHT22;6503;48.572;13.460;2022-11-03T11:58:34;16.30;99.90
12870;DHT22;6503;48.572;13.460;2022-11-03T12:01:05;16.20;99.90
12870;DHT22;6503;48.572;13.460;2022-11-03T12:03:37;16.30;99.90
12870;DHT22;6503;48.572;13.460;2022-11-03T12:06:06;16.40;99.90
12870;DHT22;6503;48.572;13.460;2022-11-03T12:08:35;16.60;99.90
12870;DHT22;6503;48.572;13.460;2022-11-03T12:11:05;16.70;99.90
12870;DHT22;6503;48.572;13.460;2022-11-03T12:13:46;16.80;99.90
12870;DHT22;6503;48.572;13.460;2022-11-03T12:16:31;16.90;99.90
12870;DHT22;6503;48.572;13.460;2022-11-03T12:19:38;16.90;99.90
12870;DHT22;6503;48.572;13.460;2022-11-03T12:22:07;17.00;99.90
12870;DHT22;6503;48.572;13.460;2022-11-03T12:24:48;17.20;99.90
12870;DHT22;6503;48.572;13.460;2022-11-03T12:27:39;17.30;99.90
12870;DHT22;6503;48.572;13.460;2022-11-03T12:30:13;17.60;99.90
12870;DHT22;6503;48.572;13.460;2022-11-03T12:32:42;17.70;99.90
12870;DHT22;6503;48.572;13.460;2022-11-03T12:35:10;17.80;99.90
12870;DHT22;6503;48.572;13.460;2022-11-03T12:37:38;17.60;99.90
12870;DHT22;6503;48.572;13.460;2022-11-03T12:40:06;17.50;99.90
12870;DHT22;6503;48.572;13.460;2022-11-03T12:42:34;17.60;99.90
12870;DHT22;6503;48.572;13.460;2022-11-03T12:45:04;17.80;99.90
12870;DHT22;6503;48.572;13.460;2022-11-03T12:47:31;17.70;99.90
12870;DHT22;6503;48.572;13.460;2022-11-03T12:49:58;17.90;99.90
12870;DHT22;6503;48.572;13.460;2022-11-03T12:52:25;18.00;99.90
12870;DHT22;6503;48.572;13.460;2022-11-03T12:54:52;18.10;99.90
12870;DHT22;6503;48.572;13.460;2022-11-03T12:57:19;18.00;99.90
12870;DHT22;6503;48.572;13.460;2022-11-03T12:59:47;17.90;99.90
12870;DHT22;6503;48.572;13.460;2022-11-03T13:02:16;17.90;99.90
12870;DHT22;6503;48.572;13.460;2022-11-03T13:04:45;17.90;99.90
12870;DHT22;6503;48.572;13.460;2022-11-03T13:07:13;17.90;99.90
12870;DHT22;6503;48.572;13.460;2022-11-03T13:09:40;17.90;99.90
12870;DHT22;6503;48.572;13.460;2022-11-03T13:12:11;17.70;99.90
12870;DHT22;6503;48.572;13.460;2022-11-03T13:14:57;17.50;99.90
12870;DHT22;6503;48.572;13.460;2022-11-03T13:17:24;17.20;99.90
12870;DHT22;6503;48.572;13.460;2022-11-03T13:19:53;17.10;99.90
12870;DHT22;6503;48.572;13.460;2022-11-03T13:22:20;17.10;99.90
12870;DHT22;6503;48.572;13.460;2022-11-03T13:24:47;17.00;99.90
12870;DHT22;6503;48.572;13.460;2022-11-03T13:27:14;16.90;99.90
12870;DHT22;6503;48.572;13.460;2022-11-03T13:29:41;16.90;99.90
12870;DHT22;6503;48.572;13.460;2022-11-03T13:32:09;16.90;99.90
12870;DHT22;6503;48.572;13.460;2022-11-03T13:34:36;16.90;99.90
12870;DHT22;6503;48.572;13.460;2022-11-03T13:37:03;16.80;99.90
12870;DHT22;6503;48.572;13.460;2022-11-03T13:39:30;16.80;99.90
12870;DHT22;6503;48.572;13.460;2022-11-03T13:41:57;16.70;99.90
12870;DHT22;6503;48.572;13.460;2022-11-03T13:44:25;16.60;99.90
12870;DHT22;6503;48.572;13.460;2022-11-03T13:46:53;16.50;99.90
12870;DHT22;6503;48.572;13.460;2022-11-03T13:49:21;16.50;99.90
12870;DHT22;6503;48.572;13.460;2022-11-03T13:51:49;16.40;99.90
12870;DHT22;6503;48.572;13.460;2022-11-03T13:54:17;16.40;99.90
12870;DHT22;6503;48.572;13.460;2022-11-03T13:56:46;16.30;99.90
12870;DHT22;6503;48.572;13.460;2022-11-03T13:59:14;16.30;99.90
12870;DHT22;6503;48.572;13.460;2022-11-03T14:01:42;16.20;99.90
12870;DHT22;6503;48.572;13.460;2022-11-03T14:04:09;16.20;99.90
12870;DHT22;6503;48.572;13.460;2022-11-03T14:06:39;16.20;99.90
12870;DHT22;6503;48.572;13.460;2022-11-03T14:09:07;16.20;99.90
12870;DHT22;6503;48.572;13.460;2022-11-03T14:11:34;16.10;99.90
12870;DHT22;6503;48.572;13.460;2022-11-03T14:14:19;16.10;99.90
12870;DHT22;6503;48.572;13.460;2022-11-03T14:16:46;16.10;99.90
12870;DHT22;6503;48.572;13.460;2022-11-03T14:19:12;16.00;99.90
12870;DHT22;6503;48.572;13.460;2022-11-03T14:21:41;16.00;99.90
12870;DHT22;6503;48.572;13.460;2022-11-03T14:24:08;15.90;99.90
12870;DHT22;6503;48.572;13.460;2022-11-03T14:26:35;15.90;99.90
12870;DHT22;6503;48.572;13.460;2022-11-03T14:29:02;15.90;99.90
12870;DHT22;6503;48.572;13.460;2022-11-03T14:31:31;15.90;99.90
12870;DHT22;6503;48.572;13.460;2022-11-03T14:33:57;15.80;99.90
12870;DHT22;6503;48.572;13.460;2022-11-03T14:36:24;15.80;99.90
12870;DHT22;6503;48.572;13.460;2022-11-03T14:38:52;15.80;99.90
12870;DHT22;6503;48.572;13.460;2022-11-03T14:41:20;15.70;99.90
12870;DHT22;6503;48.572;13.460;2022-11-03T14:44:04;15.60;99.90
12870;DHT22;6503;48.572;13.460;2022-11-03T14:46:31;15.50;99.90
12870;DHT22;6503;48.572;13.460;2022-11-03T14:48:58;15.40;99.90
12870;DHT22;6503;48.572;13.460;2022-11-03T14:51:26;15.40;99.90
12870;DHT22;6503;48.572;13.460;2022-11-03T14:53:54;15.40;99.90
12870;DHT22;6503;48.572;13.460;2022-11-03T14:56:22;15.30;99.90
12870;DHT22;6503;48.572;13.460;2022-11-03T14:58:49;15.20;99.90
12870;DHT22;6503;48.572;13.460;2022-11-03T15:01:17;15.10;99.90
12870;DHT22;6503;48.572;13.460;2022-11-03T15:03:44;15.00;99.90
12870;DHT22;6503;48.572;13.460;2022-11-03T15:06:15;15.00;99.90
12870;DHT22;6503;48.572;13.460;2022-11-03T15:08:42;14.80;99.90
12870;DHT22;6503;48.572;13.460;2022-11-03T15:11:11;14.80;99.90
12870;DHT22;6503;48.572;13.460;2022-11-03T15:13:38;14.70;99.90
12870;DHT22;6503;48.572;13.460;2022-11-03T15:16:05;14.60;99.90
12870;DHT22;6503;48.572;13.460;2022-11-03T15:18:32;14.50;99.90
12870;DHT22;6503;48.572;13.460;2022-11-03T15:20:59;14.30;99.90
12870;DHT22;6503;48.572;13.460;2022-11-03T15:23:27;14.20;99.90
12870;DHT22;6503;48.572;13.460;2022-11-03T15:25:56;14.10;99.90
12870;DHT22;6503;48.572;13.460;2022-11-03T15:28:24;14.00;99.90
12870;DHT22;6503;48.572;13.460;2022-11-03T15:30:53;13.90;99.90
12870;DHT22;6503;48.572;13.460;2022-11-03T15:33:20;13.80;99.90
12870;DHT22;6503;48.572;13.460;2022-11-03T15:35:47;13.80;99.90
12870;DHT22;6503;48.572;13.460;2022-11-03T15:38:14;13.80;99.90
12870;DHT22;6503;48.572;13.460;2022-11-03T15:40:45;13.70;99.90
12870;DHT22;6503;48.572;13.460;2022-11-03T15:43:13;13.70;99.90
12870;DHT22;6503;48.572;13.460;2022-11-03T15:45:44;13.70;99.90
12870;DHT22;6503;48.572;13.460;2022-11-03T15:48:14;13.60;99.90
12870;DHT22;6503;48.572;13.460;2022-11-03T15:50:43;13.70;99.90
12870;DHT22;6503;48.572;13.460;2022-11-03T15:53:10;13.60;99.90
12870;DHT22;6503;48.572;13.460;2022-11-03T15:55:37;13.50;99.90
12870;DHT22;6503;48.572;13.460;2022-11-03T15:58:07;13.40;99.90
12870;DHT22;6503;48.572;13.460;2022-11-03T16:00:34;13.30;99.90
12870;DHT22;6503;48.572;13.460;2022-11-03T16:03:04;13.20;99.90
12870;DHT22;6503;48.572;13.460;2022-11-03T16:05:31;13.20;99.90
12870;DHT22;6503;48.572;13.460;2022-11-03T16:08:01;13.10;99.90
12870;DHT22;6503;48.572;13.460;2022-11-03T16:10:28;13.10;99.90
12870;DHT22;6503;48.572;13.460;2022-11-03T16:12:55;13.10;99.90
12870;DHT22;6503;48.572;13.460;2022-11-03T16:15:23;13.10;99.90
12870;DHT22;6503;48.572;13.460;2022-11-03T16:17:51;13.10;99.90
12870;DHT22;6503;48.572;13.460;2022-11-03T16:20:20;13.00;99.90
12870;DHT22;6503;48.572;13.460;2022-11-03T16:22:47;13.00;99.90
12870;DHT22;6503;48.572;13.460;2022-11-03T16:25:15;13.10;99.90
12870;DHT22;6503;48.572;13.460;2022-11-03T16:27:43;13.10;99.90
12870;DHT22;6503;48.572;13.460;2022-11-03T16:30:11;12.90;99.90
12870;DHT22;6503;48.572;13.460;2022-11-03T16:32:41;12.80;99.90
12870;DHT22;6503;48.572;13.460;2022-11-03T16:35:08;12.80;99.90
12870;DHT22;6503;48.572;13.460;2022-11-03T16:37:37;12.70;99.90
12870;DHT22;6503;48.572;13.460;2022-11-03T16:40:06;12.60;99.90
12870;DHT22;6503;48.572;13.460;2022-11-03T16:42:34;12.60;99.90
12870;DHT22;6503;48.572;13.460;2022-11-03T16:45:05;12.50;99.90
12870;DHT22;6503;48.572;13.460;2022-11-03T16:47:34;12.50;99.90
12870;DHT22;6503;48.572;13.460;2022-11-03T16:50:01;12.40;99.90
12870;DHT22;6503;48.572;13.460;2022-11-03T16:52:29;12.30;99.90
12870;DHT22;6503;48.572;13.460;2022-11-03T16:55:02;12.30;99.90
12870;DHT22;6503;48.572;13.460;2022-11-03T16:57:31;12.20;99.90
12870;DHT22;6503;48.572;13.460;2022-11-03T16:59:59;12.10;99.90
12870;DHT22;6503;48.572;13.460;2022-11-03T17:02:29;12.00;99.90
12870;DHT22;6503;48.572;13.460;2022-11-03T17:04:59;12.00;99.90
12870;DHT22;6503;48.572;13.460;2022-11-03T17:07:29;12.00;99.90
12870;DHT22;6503;48.572;13.460;2022-11-03T17:09:57;12.10;99.90
12870;DHT22;6503;48.572;13.460;2022-11-03T17:12:26;12.10;99.90
12870;DHT22;6503;48.572;13.460;2022-11-03T17:14:53;12.00;99.90
12870;DHT22;6503;48.572;13.460;2022-11-03T17:17:20;12.10;99.90
12870;DHT22;6503;48.572;13.460;2022-11-03T17:19:47;12.00;99.90
12870;DHT22;6503;48.572;13.460;2022-11-03T17:22:15;12.00;99.90
12870;DHT22;6503;48.572;13.460;2022-11-03T17:24:42;12.00;99.90
12870;DHT22;6503;48.572;13.460;2022-11-03T17:27:12;12.10;99.90
12870;DHT22;6503;48.572;13.460;2022-11-03T17:29:56;12.10;99.90
12870;DHT22;6503;48.572;13.460;2022-11-03T17:32:28;12.00;99.90